createdAt,value
2022-08-27T00:02:10.239Z,13.48
2022-08-27T00:04:41.091Z,12.82
2022-08-27T00:07:10.741Z,12.70
2022-08-27T00:09:39.173Z,12.80
2022-08-27T00:12:08.947Z,13.77
2022-08-27T00:14:40.122Z,15.30
2022-08-27T00:17:09.395Z,16.98
2022-08-27T00:19:38.145Z,17.25
2022-08-27T00:22:08.238Z,18.23
2022-08-27T00:24:36.438Z,17.65
2022-08-27T00:27:12.972Z,16.98
2022-08-27T00:29:42.572Z,21.15
2022-08-27T00:32:10.795Z,15.95
2022-08-27T00:34:38.962Z,16.27
2022-08-27T00:37:07.642Z,18.13
2022-08-27T00:39:37.063Z,17.73
2022-08-27T00:42:06.704Z,18.60
2022-08-27T00:44:35.511Z,16.80
2022-08-27T00:47:13.425Z,17.33
2022-08-27T00:49:46.196Z,16.17
2022-08-27T00:52:23.004Z,18.88
2022-08-27T00:54:55.690Z,17.85
2022-08-27T00:57:24.140Z,20.25
2022-08-27T00:59:52.474Z,17.38
2022-08-27T01:02:26.030Z,17.58
2022-08-27T01:05:00.545Z,20.58
2022-08-27T01:07:33.924Z,20.77
2022-08-27T01:10:08.020Z,18.65
2022-08-27T01:12:37.404Z,20.95
2022-08-27T01:15:11.962Z,18.55
2022-08-27T01:17:45.267Z,20.55
2022-08-27T01:20:20.104Z,19.70
2022-08-27T01:23:00.267Z,21.33
2022-08-27T01:25:31.258Z,20.58
2022-08-27T01:28:02.868Z,22.08
2022-08-27T01:30:32.567Z,22.00
2022-08-27T01:33:00.752Z,18.92
2022-08-27T01:35:29.148Z,20.35
2022-08-27T01:37:57.435Z,20.45
2022-08-27T01:40:26.297Z,19.15
2022-08-27T01:42:58.898Z,19.95
2022-08-27T01:45:30.792Z,18.17
2022-08-27T01:48:00.590Z,19.50
2022-08-27T01:50:33.110Z,19.63
2022-08-27T01:53:05.416Z,18.25
2022-08-27T01:55:33.695Z,19.38
2022-08-27T01:58:03.566Z,18.90
2022-08-27T02:00:37.548Z,16.63
2022-08-27T02:03:07.403Z,18.95
2022-08-27T02:05:44.841Z,19.50
2022-08-27T02:08:15.933Z,19.38
2022-08-27T02:10:46.728Z,16.20
2022-08-27T02:13:17.737Z,18.75
2022-08-27T02:15:46.965Z,17.45
2022-08-27T02:18:16.292Z,18.60
2022-08-27T02:20:46.104Z,18.98
2022-08-27T02:23:14.766Z,17.60
2022-08-27T02:25:43.045Z,17.35
2022-08-27T02:28:11.628Z,17.45
2022-08-27T02:30:42.047Z,18.70
2022-08-27T02:33:10.241Z,18.30
2022-08-27T02:35:40.675Z,18.50
2022-08-27T02:38:09.913Z,19.67
2022-08-27T02:40:38.318Z,19.27
2022-08-27T02:43:06.843Z,19.90
2022-08-27T02:45:36.600Z,20.50
2022-08-27T02:48:08.275Z,17.35
2022-08-27T02:50:37.378Z,19.95
2022-08-27T02:53:07.436Z,17.95
2022-08-27T02:55:36.291Z,19.48
2022-08-27T02:58:05.661Z,20.05
2022-08-27T03:00:34.603Z,21.77
2022-08-27T03:03:05.170Z,19.52
2022-08-27T03:05:33.510Z,21.33
2022-08-27T03:08:01.879Z,18.38
2022-08-27T03:10:30.793Z,18.58
2022-08-27T03:12:59.434Z,21.33
2022-08-27T03:15:27.751Z,19.50
2022-08-27T03:18:13.478Z,19.98
2022-08-27T03:20:45.962Z,23.45
2022-08-27T03:23:15.665Z,20.10
2022-08-27T03:25:49.267Z,20.67
2022-08-27T03:28:22.543Z,19.90
2022-08-27T03:30:54.286Z,19.58
2022-08-27T03:33:23.361Z,17.45
2022-08-27T03:35:52.893Z,20.88
2022-08-27T03:38:21.437Z,16.80
2022-08-27T03:40:50.407Z,16.52
2022-08-27T03:43:21.339Z,17.10
2022-08-27T03:46:00.655Z,16.63
2022-08-27T03:48:31.866Z,19.20
2022-08-27T03:51:06.643Z,18.92
2022-08-27T03:53:36.256Z,16.75
2022-08-27T03:56:06.257Z,17.88
2022-08-27T03:58:34.724Z,17.20
2022-08-27T04:01:03.482Z,21.92
2022-08-27T04:03:31.858Z,18.17
2022-08-27T04:06:01.355Z,17.75
2022-08-27T04:08:31.044Z,19.58
2022-08-27T04:10:59.247Z,15.80
2022-08-27T04:13:27.432Z,15.35
2022-08-27T04:15:56.662Z,17.55
2022-08-27T04:18:24.987Z,15.43
2022-08-27T04:20:53.650Z,17.88
2022-08-27T04:23:23.691Z,14.25
2022-08-27T04:25:52.267Z,14.48
2022-08-27T04:28:20.416Z,14.15
2022-08-27T04:30:48.847Z,12.68
2022-08-27T04:33:17.410Z,13.75
2022-08-27T04:35:45.577Z,13.13
2022-08-27T04:38:13.709Z,13.35
2022-08-27T04:41:02.750Z,14.52
2022-08-27T04:43:30.899Z,13.13
2022-08-27T04:45:59.063Z,10.77
2022-08-27T04:48:27.377Z,11.63
2022-08-27T04:50:55.580Z,12.85
2022-08-27T04:53:23.749Z,12.27
2022-08-27T04:55:56.313Z,12.10
2022-08-27T04:58:27.197Z,15.68
2022-08-27T05:01:01.506Z,11.73
2022-08-27T05:03:29.986Z,11.63
2022-08-27T05:06:02.873Z,13.57
2022-08-27T05:08:32.418Z,14.25
2022-08-27T05:11:02.096Z,12.27
2022-08-27T05:13:31.268Z,13.88
2022-08-27T05:16:01.992Z,14.63
2022-08-27T05:18:33.271Z,10.77
2022-08-27T05:21:03.506Z,10.85
2022-08-27T05:23:32.519Z,11.40
2022-08-27T05:26:08.914Z,11.18
2022-08-27T05:28:37.173Z,13.52
2022-08-27T05:31:09.094Z,12.82
2022-08-27T05:33:39.656Z,15.07
2022-08-27T05:36:15.044Z,14.23
2022-08-27T05:38:43.564Z,16.60
2022-08-27T05:41:17.739Z,16.65
2022-08-27T05:43:50.131Z,15.32
2022-08-27T05:46:22.385Z,14.02
2022-08-27T05:48:52.416Z,16.05
2022-08-27T05:51:25.856Z,16.58
2022-08-27T05:53:58.505Z,14.88
2022-08-27T05:56:30.997Z,18.30
2022-08-27T05:59:17.154Z,18.88
2022-08-27T06:01:49.257Z,17.65
2022-08-27T06:04:20.473Z,19.20
2022-08-27T06:06:50.111Z,20.08
2022-08-27T06:09:23.403Z,18.35
2022-08-27T06:11:55.553Z,21.65
2022-08-27T06:14:24.030Z,16.70
2022-08-27T06:16:52.203Z,18.08
2022-08-27T06:19:21.323Z,21.25
2022-08-27T06:22:00.255Z,15.90
2022-08-27T06:24:29.934Z,18.58
2022-08-27T06:26:59.484Z,19.80
2022-08-27T06:29:27.680Z,18.08
2022-08-27T06:31:56.371Z,24.15
2022-08-27T06:34:24.458Z,23.45
2022-08-27T06:36:53.407Z,19.60
2022-08-27T06:39:21.653Z,20.20
2022-08-27T06:41:50.296Z,19.30
2022-08-27T06:44:20.999Z,26.85
2022-08-27T06:46:49.089Z,23.67
2022-08-27T06:49:17.650Z,22.25
2022-08-27T06:51:48.658Z,20.85
2022-08-27T06:54:19.971Z,25.40
2022-08-27T06:56:49.551Z,30.45
2022-08-27T06:59:20.768Z,28.92
2022-08-27T07:01:51.374Z,26.85
2022-08-27T07:04:27.885Z,23.75
2022-08-27T07:07:02.073Z,30.38
2022-08-27T07:09:32.090Z,28.30
2022-08-27T07:12:00.794Z,30.77
2022-08-27T07:14:35.652Z,24.35
2022-08-27T07:17:11.223Z,30.75
2022-08-27T07:19:44.218Z,30.17
2022-08-27T07:22:12.994Z,32.35
2022-08-27T07:24:41.480Z,34.42
2022-08-27T07:27:10.314Z,28.02
2022-08-27T07:29:40.196Z,33.47
2022-08-27T07:32:08.404Z,31.25
2022-08-27T07:34:36.528Z,39.80
2022-08-27T07:37:05.041Z,40.85
2022-08-27T07:39:33.246Z,32.78
2022-08-27T07:42:19.124Z,31.95
2022-08-27T07:44:49.858Z,37.15
2022-08-27T07:47:17.993Z,37.13
2022-08-27T07:49:46.175Z,36.20
2022-08-27T07:52:17.191Z,33.83
2022-08-27T07:54:45.443Z,34.28
2022-08-27T07:57:13.582Z,35.95
2022-08-27T07:59:41.724Z,39.42
2022-08-27T08:02:12.821Z,31.17
2022-08-27T08:04:40.958Z,29.92
2022-08-27T08:07:09.393Z,34.10
2022-08-27T08:09:37.526Z,30.40
2022-08-27T08:12:07.484Z,32.33
2022-08-27T08:14:36.901Z,33.30
2022-08-27T08:17:06.378Z,33.15
2022-08-27T08:19:40.382Z,31.13
2022-08-27T08:22:09.018Z,30.50
2022-08-27T08:24:37.843Z,28.88
2022-08-27T08:27:07.820Z,27.25
2022-08-27T08:29:37.604Z,27.65
2022-08-27T08:32:06.933Z,32.05
2022-08-27T08:34:36.802Z,30.55
2022-08-27T08:37:07.757Z,25.45
2022-08-27T08:39:38.672Z,34.67
2022-08-27T08:42:18.576Z,25.55
2022-08-27T08:44:53.707Z,30.70
2022-08-27T08:47:27.736Z,24.60
2022-08-27T08:50:09.102Z,29.65
2022-08-27T08:52:51.670Z,26.50
2022-08-27T08:55:36.696Z,24.35
2022-08-27T08:58:20.915Z,25.13
2022-08-27T09:00:57.607Z,23.77
2022-08-27T09:03:26.623Z,20.10
2022-08-27T09:06:03.406Z,23.27
2022-08-27T09:08:41.140Z,20.23
2022-08-27T09:11:24.603Z,15.68
2022-08-27T09:13:59.656Z,17.88
2022-08-27T09:16:28.411Z,17.33
2022-08-27T09:18:57.075Z,16.60
2022-08-27T09:21:41.830Z,16.23
2022-08-27T09:24:26.279Z,17.30
2022-08-27T09:26:55.301Z,15.25
2022-08-27T09:29:30.006Z,16.42
2022-08-27T09:32:01.524Z,15.35
2022-08-27T09:34:36.791Z,13.60
2022-08-27T09:37:12.107Z,15.13
2022-08-27T09:39:53.456Z,14.48
2022-08-27T09:42:31.824Z,13.75
2022-08-27T09:45:00.675Z,15.63
2022-08-27T09:47:28.981Z,14.30
2022-08-27T09:50:10.642Z,13.73
2022-08-27T09:52:51.242Z,11.10
2022-08-27T09:55:37.993Z,10.38
2022-08-27T09:58:20.015Z,11.50
2022-08-27T10:00:52.398Z,8.55
2022-08-27T10:03:23.649Z,10.25
2022-08-27T10:05:54.248Z,10.82
2022-08-27T10:08:31.118Z,10.70
2022-08-27T10:11:06.103Z,10.40
2022-08-27T10:13:54.020Z,13.35
2022-08-27T10:17:03.390Z,11.70
2022-08-27T10:19:50.124Z,11.05
2022-08-27T10:22:33.068Z,12.25
2022-08-27T10:25:23.755Z,12.93
2022-08-27T10:28:11.349Z,14.60
2022-08-27T10:31:03.379Z,17.10
2022-08-27T10:33:43.507Z,18.27
2022-08-27T10:36:26.372Z,15.85
2022-08-27T10:39:06.957Z,14.07
2022-08-27T10:41:43.233Z,17.45
2022-08-27T10:44:37.909Z,18.02
2022-08-27T10:47:29.283Z,15.95
2022-08-27T10:50:07.653Z,20.67
2022-08-27T10:52:51.482Z,17.23
2022-08-27T10:55:26.880Z,18.35
2022-08-27T10:58:13.382Z,20.00
2022-08-27T11:00:50.695Z,18.10
2022-08-27T11:03:32.196Z,18.55
2022-08-27T11:06:11.429Z,19.23
2022-08-27T11:08:49.797Z,24.20
2022-08-27T11:14:32.618Z,19.25
2022-08-27T11:17:09.507Z,19.23
2022-08-27T11:19:54.278Z,19.13
2022-08-27T11:22:34.116Z,17.33
2022-08-27T11:25:16.621Z,18.65
2022-08-27T11:27:47.890Z,18.50
2022-08-27T11:30:26.960Z,19.48
2022-08-27T11:33:11.036Z,20.60
2022-08-27T11:36:10.552Z,17.35
2022-08-27T11:38:51.858Z,15.35
2022-08-27T11:41:53.147Z,16.42
2022-08-27T11:44:26.549Z,15.35
2022-08-27T11:46:58.732Z,16.33
2022-08-27T11:49:35.966Z,18.95
2022-08-27T11:52:08.516Z,16.88
2022-08-27T11:54:48.232Z,15.60
2022-08-27T11:57:27.674Z,15.90
2022-08-27T11:59:56.072Z,13.85
2022-08-27T12:02:27.491Z,14.10
2022-08-27T12:05:11.215Z,14.75
2022-08-27T12:07:51.562Z,14.68
2022-08-27T12:10:38.813Z,16.38
2022-08-27T12:13:22.346Z,13.75
2022-08-27T12:16:03.114Z,15.60
2022-08-27T12:18:54.683Z,14.13
2022-08-27T12:21:41.610Z,16.80
2022-08-27T12:24:31.500Z,16.98
2022-08-27T12:27:13.958Z,14.32
2022-08-27T12:29:52.972Z,15.88
2022-08-27T12:32:29.770Z,14.45
2022-08-27T12:35:10.870Z,12.95
2022-08-27T12:37:46.391Z,14.10
2022-08-27T12:40:24.399Z,13.45
2022-08-27T12:43:05.976Z,10.73
2022-08-27T12:45:42.910Z,11.98
2022-08-27T12:48:11.747Z,13.63
2022-08-27T12:50:40.999Z,13.20
2022-08-27T12:53:42.413Z,15.20
2022-08-27T12:56:52.404Z,13.88
2022-08-27T12:59:47.835Z,13.68
2022-08-27T13:02:46.696Z,15.05
2022-08-27T13:05:20.273Z,15.52
2022-08-27T13:07:51.767Z,15.10
2022-08-27T13:10:27.630Z,15.32
2022-08-27T13:13:06.736Z,13.82
2022-08-27T13:15:35.759Z,15.38
2022-08-27T13:18:07.353Z,14.85
2022-08-27T13:20:40.213Z,15.63
2022-08-27T13:23:19.854Z,14.07
2022-08-27T13:26:06.858Z,13.18
2022-08-27T13:28:38.243Z,14.20
2022-08-27T13:31:10.221Z,13.60
2022-08-27T13:33:40.944Z,13.23
2022-08-27T13:36:10.561Z,12.95
2022-08-27T13:38:49.301Z,12.85
2022-08-27T13:41:30.226Z,9.45
2022-08-27T13:44:07.234Z,11.07
2022-08-27T13:46:46.203Z,11.02
2022-08-27T13:49:22.256Z,12.15
2022-08-27T13:51:58.709Z,10.32
2022-08-27T13:54:25.961Z,9.73
2022-08-27T13:57:08.147Z,9.35
2022-08-27T13:59:43.239Z,9.48
2022-08-27T14:02:26.943Z,10.60
2022-08-27T14:05:13.286Z,9.38
2022-08-27T14:07:48.472Z,10.15
2022-08-27T14:10:34.729Z,13.60
2022-08-27T14:13:08.228Z,12.65
2022-08-27T14:15:40.656Z,9.60
2022-08-27T14:18:37.091Z,11.00
2022-08-27T14:21:10.576Z,11.23
2022-08-27T14:23:38.714Z,10.25
2022-08-27T14:26:07.094Z,10.38
2022-08-27T14:28:36.891Z,10.63
2022-08-27T14:31:05.150Z,10.50
2022-08-27T14:33:33.247Z,11.18
2022-08-27T14:36:01.435Z,10.65
2022-08-27T14:38:33.898Z,10.43
2022-08-27T14:41:02.304Z,10.57
2022-08-27T14:43:36.243Z,9.05
2022-08-27T14:46:07.497Z,8.98
2022-08-27T14:48:36.893Z,11.90
2022-08-27T14:51:14.390Z,8.43
2022-08-27T14:53:42.491Z,9.88
2022-08-27T14:56:10.694Z,9.82
2022-08-27T14:58:40.235Z,9.63
2022-08-27T15:01:08.525Z,9.95
2022-08-27T15:03:44.792Z,13.48
2022-08-27T15:06:12.981Z,13.85
2022-08-27T15:08:44.612Z,14.18
2022-08-27T15:11:18.319Z,11.18
2022-08-27T15:13:48.162Z,14.68
2022-08-27T15:16:17.174Z,11.45
2022-08-27T15:19:00.331Z,14.80
2022-08-27T15:21:31.522Z,13.23
2022-08-27T15:24:03.581Z,11.82
2022-08-27T15:26:33.216Z,10.20
2022-08-27T15:29:06.347Z,10.65
2022-08-27T15:31:35.808Z,9.02
2022-08-27T15:34:04.455Z,9.90
2022-08-27T15:36:32.569Z,9.55
2022-08-27T15:39:00.740Z,10.77
2022-08-27T15:41:29.568Z,7.32
2022-08-27T15:43:58.803Z,9.90
2022-08-27T15:46:28.596Z,9.15
2022-08-27T15:48:57.372Z,9.02
2022-08-27T15:51:31.336Z,9.98
2022-08-27T15:54:01.388Z,12.23
2022-08-27T15:56:34.315Z,10.57
2022-08-27T15:59:03.059Z,11.88
2022-08-27T16:01:37.459Z,14.60
2022-08-27T16:04:07.132Z,7.38
2022-08-27T16:06:35.642Z,11.38
2022-08-27T16:09:04.651Z,10.60
2022-08-27T16:11:32.771Z,10.98
2022-08-27T16:14:01.375Z,13.82
2022-08-27T16:16:33.545Z,11.95
2022-08-27T16:19:04.071Z,13.65
2022-08-27T16:21:34.806Z,14.48
2022-08-27T16:24:04.274Z,13.27
2022-08-27T16:26:32.381Z,12.98
2022-08-27T16:29:01.266Z,11.63
2022-08-27T16:31:29.910Z,12.65
2022-08-27T16:34:02.422Z,12.82
2022-08-27T16:36:30.716Z,14.30
2022-08-27T16:38:58.873Z,11.57
2022-08-27T16:41:27.121Z,11.27
2022-08-27T16:43:55.607Z,11.30
2022-08-27T16:46:23.714Z,11.05
2022-08-27T16:49:09.729Z,10.98
2022-08-27T16:51:40.072Z,11.50
2022-08-27T16:54:10.614Z,11.65
2022-08-27T16:56:40.064Z,11.13
2022-08-27T16:59:09.274Z,11.45
2022-08-27T17:01:38.292Z,12.10
2022-08-27T17:04:11.673Z,11.88
2022-08-27T17:06:45.476Z,11.43
2022-08-27T17:09:14.735Z,11.15
2022-08-27T17:11:49.185Z,14.25
2022-08-27T17:14:17.651Z,11.43
2022-08-27T17:16:45.757Z,10.85
2022-08-27T17:19:17.102Z,10.95
2022-08-27T17:21:47.145Z,11.60
2022-08-27T17:24:15.295Z,10.07
2022-08-27T17:26:43.402Z,11.52
2022-08-27T17:29:11.497Z,11.82
2022-08-27T17:31:43.486Z,11.32
2022-08-27T17:34:18.572Z,11.80
2022-08-27T17:36:48.465Z,11.80
2022-08-27T17:39:17.558Z,11.48
2022-08-27T17:41:50.100Z,12.18
2022-08-27T17:44:24.115Z,15.10
2022-08-27T17:46:54.208Z,16.77
2022-08-27T17:49:22.742Z,16.75
2022-08-27T17:51:57.738Z,18.05
2022-08-27T17:54:32.366Z,19.67
2022-08-27T17:57:01.870Z,17.63
2022-08-27T17:59:30.755Z,18.38
2022-08-27T18:01:59.113Z,19.63
2022-08-27T18:04:27.307Z,18.15
2022-08-27T18:06:56.764Z,21.15
2022-08-27T18:09:24.895Z,22.38
2022-08-27T18:11:53.342Z,21.05
2022-08-27T18:14:24.744Z,18.48
2022-08-27T18:16:52.873Z,18.50
2022-08-27T18:19:21.093Z,20.08
2022-08-27T18:21:49.237Z,19.45
2022-08-27T18:24:18.975Z,18.70
2022-08-27T18:26:47.488Z,17.55
2022-08-27T18:29:16.684Z,17.55
2022-08-27T18:31:45.347Z,20.42
2022-08-27T18:34:17.512Z,21.15
2022-08-27T18:36:48.253Z,17.33
2022-08-27T18:39:18.245Z,16.33
2022-08-27T18:41:46.517Z,18.05
2022-08-27T18:44:17.144Z,17.13
2022-08-27T18:46:46.472Z,15.68
2022-08-27T18:49:14.881Z,16.90
2022-08-27T18:51:48.165Z,18.30
2022-08-27T18:54:22.061Z,17.10
2022-08-27T18:56:50.303Z,18.73
2022-08-27T18:59:18.486Z,20.92
2022-08-27T19:01:47.667Z,17.55
2022-08-27T19:04:16.470Z,16.67
2022-08-27T19:06:44.636Z,16.27
2022-08-27T19:09:13.969Z,16.65
2022-08-27T19:11:43.770Z,17.55
2022-08-27T19:14:11.905Z,17.38
2022-08-27T19:16:44.768Z,17.67
2022-08-27T19:19:16.485Z,18.05
2022-08-27T19:21:50.648Z,17.65
2022-08-27T19:24:21.282Z,17.08
2022-08-27T19:26:51.387Z,16.98
2022-08-27T19:29:19.840Z,21.30
2022-08-27T19:31:48.489Z,18.00
2022-08-27T19:34:16.836Z,18.25
2022-08-27T19:36:45.503Z,17.42
2022-08-27T19:39:14.638Z,18.63
2022-08-27T19:41:42.879Z,14.82
2022-08-27T19:44:12.354Z,19.42
2022-08-27T19:46:40.839Z,17.50
2022-08-27T19:49:08.937Z,15.45
2022-08-27T19:51:37.010Z,17.33
2022-08-27T19:54:05.541Z,13.43
2022-08-27T19:56:34.403Z,15.13
2022-08-27T19:59:15.821Z,15.07
2022-08-27T20:01:52.659Z,15.02
2022-08-27T20:04:21.055Z,15.05
2022-08-27T20:06:49.654Z,14.25
2022-08-27T20:09:21.135Z,14.02
2022-08-27T20:11:50.526Z,15.80
2022-08-27T20:14:19.540Z,13.60
2022-08-27T20:16:48.098Z,14.38
2022-08-27T20:19:19.949Z,16.35
2022-08-27T20:21:48.001Z,14.18
2022-08-27T20:24:16.156Z,15.40
2022-08-27T20:26:44.282Z,16.25
2022-08-27T20:29:15.054Z,13.73
2022-08-27T20:32:00.515Z,15.82
2022-08-27T20:34:32.446Z,12.82
2022-08-27T20:37:02.225Z,15.65
2022-08-27T20:39:30.491Z,12.75
2022-08-27T20:41:58.926Z,13.85
2022-08-27T20:44:27.356Z,14.15
2022-08-27T20:47:02.280Z,13.30
2022-08-27T20:49:32.264Z,14.00
2022-08-27T20:52:03.220Z,14.52
2022-08-27T20:54:33.763Z,14.35
2022-08-27T20:57:03.261Z,11.45
2022-08-27T20:59:49.380Z,11.65
2022-08-27T21:02:23.243Z,12.50
2022-08-27T21:04:54.093Z,12.38
2022-08-27T21:07:24.482Z,12.40
2022-08-27T21:09:52.770Z,12.50
2022-08-27T21:12:26.515Z,11.55
2022-08-27T21:14:56.391Z,12.32
2022-08-27T21:17:26.075Z,13.23
2022-08-27T21:19:56.639Z,12.45
2022-08-27T21:22:26.208Z,11.85
2022-08-27T21:24:54.841Z,13.43
2022-08-27T21:27:23.526Z,11.65
2022-08-27T21:29:52.099Z,12.23
2022-08-27T21:32:20.430Z,16.88
2022-08-27T21:34:48.692Z,13.32
2022-08-27T21:37:19.564Z,17.38
2022-08-27T21:39:47.955Z,14.40
2022-08-27T21:42:16.609Z,16.08
2022-08-27T21:44:44.711Z,13.00
2022-08-27T21:47:12.919Z,17.60
2022-08-27T21:49:41.979Z,15.15
2022-08-27T21:52:10.548Z,15.35
2022-08-27T21:54:42.335Z,15.75
2022-08-27T21:57:14.155Z,16.65
2022-08-27T21:59:45.824Z,13.52
2022-08-27T22:02:38.114Z,14.50
2022-08-27T22:05:03.172Z,14.10
2022-08-27T22:07:31.256Z,15.05
2022-08-27T22:10:00.738Z,15.43
2022-08-27T22:12:28.884Z,14.48
2022-08-27T22:14:56.955Z,13.25
2022-08-27T22:17:25.098Z,15.75
2022-08-27T22:19:53.373Z,13.52
2022-08-27T22:22:21.532Z,14.07
2022-08-27T22:24:49.676Z,14.45
2022-08-27T22:27:22.042Z,13.18
2022-08-27T22:29:50.128Z,13.52
2022-08-27T22:32:18.227Z,12.80
2022-08-27T22:34:46.347Z,14.23
2022-08-27T22:37:14.440Z,12.07
2022-08-27T22:39:42.616Z,12.02
2022-08-27T22:42:13.018Z,11.93
2022-08-27T22:44:47.178Z,13.15
2022-08-27T22:47:15.424Z,11.38
2022-08-27T22:49:44.760Z,12.05
2022-08-27T22:52:13.369Z,11.00
2022-08-27T22:54:41.561Z,11.35
2022-08-27T22:57:10.646Z,10.30
2022-08-27T22:59:39.348Z,11.15
2022-08-27T23:02:10.895Z,11.65
2022-08-27T23:04:54.601Z,12.00
2022-08-27T23:07:23.823Z,9.70
2022-08-27T23:09:52.001Z,9.88
2022-08-27T23:12:20.781Z,10.73
2022-08-27T23:14:49.368Z,9.80
2022-08-27T23:17:19.799Z,10.10
2022-08-27T23:19:47.975Z,9.90
2022-08-27T23:22:16.515Z,10.00
2022-08-27T23:24:58.902Z,10.43
2022-08-27T23:27:30.254Z,13.65
2022-08-27T23:29:59.675Z,9.48
2022-08-27T23:32:29.693Z,10.88
2022-08-27T23:34:57.963Z,10.85
2022-08-27T23:37:26.378Z,9.48
2022-08-27T23:39:55.118Z,9.85
2022-08-27T23:42:23.640Z,8.80
2022-08-27T23:44:52.129Z,9.73
2022-08-27T23:47:20.274Z,9.88
2022-08-27T23:49:49.748Z,10.57
2022-08-27T23:52:17.869Z,10.43
2022-08-27T23:54:45.955Z,10.32
2022-08-27T23:57:14.083Z,11.90
2022-08-27T23:59:42.363Z,8.75
